sensor_id;sensor_type;location;lat;lon;timestamp;P1;durP1;ratioP1;P2;durP2;ratioP2
75506;SDS011;64086;43.220;27.878;2023-07-20T00:01:10;10.30;;;9.38;;
75506;SDS011;64086;43.220;27.878;2023-07-20T00:03:36;9.73;;;8.80;;
75506;SDS011;64086;43.220;27.878;2023-07-20T00:06:01;9.48;;;8.70;;
75506;SDS011;64086;43.220;27.878;2023-07-20T00:08:29;10.75;;;9.77;;
75506;SDS011;64086;43.220;27.878;2023-07-20T00:10:54;10.27;;;9.27;;
75506;SDS011;64086;43.220;27.878;2023-07-20T00:13:20;10.30;;;9.40;;
75506;SDS011;64086;43.220;27.878;2023-07-20T00:15:46;10.10;;;9.10;;
75506;SDS011;64086;43.220;27.878;2023-07-20T00:18:11;9.52;;;8.55;;
75506;SDS011;64086;43.220;27.878;2023-07-20T00:20:37;10.52;;;9.25;;
75506;SDS011;64086;43.220;27.878;2023-07-20T00:23:03;17.17;;;11.35;;
75506;SDS011;64086;43.220;27.878;2023-07-20T00:25:28;11.98;;;10.85;;
75506;SDS011;64086;43.220;27.878;2023-07-20T00:27:54;11.07;;;9.98;;
75506;SDS011;64086;43.220;27.878;2023-07-20T00:30:20;10.63;;;9.77;;
75506;SDS011;64086;43.220;27.878;2023-07-20T00:32:45;11.15;;;10.13;;
75506;SDS011;64086;43.220;27.878;2023-07-20T00:35:10;11.27;;;10.18;;
75506;SDS011;64086;43.220;27.878;2023-07-20T00:37:36;11.45;;;10.50;;
75506;SDS011;64086;43.220;27.878;2023-07-20T00:40:02;12.32;;;11.07;;
75506;SDS011;64086;43.220;27.878;2023-07-20T00:42:29;12.05;;;11.02;;
75506;SDS011;64086;43.220;27.878;2023-07-20T00:44:54;11.15;;;10.23;;
75506;SDS011;64086;43.220;27.878;2023-07-20T00:47:20;12.00;;;10.80;;
75506;SDS011;64086;43.220;27.878;2023-07-20T00:49:45;11.90;;;10.85;;
75506;SDS011;64086;43.220;27.878;2023-07-20T00:52:11;11.75;;;10.82;;
75506;SDS011;64086;43.220;27.878;2023-07-20T00:54:39;10.90;;;9.90;;
75506;SDS011;64086;43.220;27.878;2023-07-20T00:57:05;11.50;;;10.38;;
75506;SDS011;64086;43.220;27.878;2023-07-20T00:59:32;11.80;;;10.50;;
75506;SDS011;64086;43.220;27.878;2023-07-20T01:01:59;11.60;;;10.50;;
75506;SDS011;64086;43.220;27.878;2023-07-20T01:04:25;12.45;;;11.30;;
75506;SDS011;64086;43.220;27.878;2023-07-20T01:09:46;12.23;;;11.13;;
75506;SDS011;64086;43.220;27.878;2023-07-20T01:12:35;12.38;;;11.32;;
75506;SDS011;64086;43.220;27.878;2023-07-20T01:15:07;12.93;;;11.63;;
75506;SDS011;64086;43.220;27.878;2023-07-20T01:17:33;13.98;;;12.15;;
75506;SDS011;64086;43.220;27.878;2023-07-20T01:19:59;21.70;;;13.32;;
75506;SDS011;64086;43.220;27.878;2023-07-20T01:31:21;14.20;;;12.25;;
75506;SDS011;64086;43.220;27.878;2023-07-20T01:33:50;12.82;;;11.52;;
75506;SDS011;64086;43.220;27.878;2023-07-20T01:36:19;12.65;;;11.55;;
75506;SDS011;64086;43.220;27.878;2023-07-20T01:38:45;13.25;;;11.63;;
75506;SDS011;64086;43.220;27.878;2023-07-20T01:41:10;12.75;;;11.55;;
75506;SDS011;64086;43.220;27.878;2023-07-20T01:43:36;12.60;;;11.40;;
75506;SDS011;64086;43.220;27.878;2023-07-20T01:46:01;12.35;;;11.27;;
75506;SDS011;64086;43.220;27.878;2023-07-20T01:48:27;11.35;;;10.25;;
75506;SDS011;64086;43.220;27.878;2023-07-20T01:50:52;11.52;;;10.52;;
75506;SDS011;64086;43.220;27.878;2023-07-20T01:53:18;12.70;;;11.60;;
75506;SDS011;64086;43.220;27.878;2023-07-20T01:55:43;11.65;;;10.70;;
75506;SDS011;64086;43.220;27.878;2023-07-20T01:58:09;11.90;;;10.90;;
75506;SDS011;64086;43.220;27.878;2023-07-20T02:00:36;12.15;;;10.85;;
75506;SDS011;64086;43.220;27.878;2023-07-20T02:03:02;11.48;;;10.57;;
75506;SDS011;64086;43.220;27.878;2023-07-20T02:05:27;11.43;;;10.35;;
75506;SDS011;64086;43.220;27.878;2023-07-20T02:07:53;10.63;;;9.73;;
75506;SDS011;64086;43.220;27.878;2023-07-20T02:10:19;11.13;;;10.18;;
75506;SDS011;64086;43.220;27.878;2023-07-20T02:12:44;10.50;;;9.70;;
75506;SDS011;64086;43.220;27.878;2023-07-20T02:15:10;10.68;;;9.68;;
75506;SDS011;64086;43.220;27.878;2023-07-20T02:17:35;10.23;;;9.23;;
75506;SDS011;64086;43.220;27.878;2023-07-20T02:20:01;10.63;;;9.40;;
75506;SDS011;64086;43.220;27.878;2023-07-20T02:22:26;10.38;;;9.48;;
75506;SDS011;64086;43.220;27.878;2023-07-20T02:24:51;10.30;;;9.32;;
75506;SDS011;64086;43.220;27.878;2023-07-20T02:27:17;9.70;;;8.80;;
75506;SDS011;64086;43.220;27.878;2023-07-20T02:29:42;9.77;;;8.88;;
75506;SDS011;64086;43.220;27.878;2023-07-20T02:32:08;10.65;;;9.55;;
75506;SDS011;64086;43.220;27.878;2023-07-20T02:34:35;10.77;;;9.85;;
75506;SDS011;64086;43.220;27.878;2023-07-20T02:37:00;10.48;;;9.48;;
75506;SDS011;64086;43.220;27.878;2023-07-20T02:39:29;10.85;;;9.95;;
75506;SDS011;64086;43.220;27.878;2023-07-20T02:41:55;11.07;;;10.05;;
75506;SDS011;64086;43.220;27.878;2023-07-20T02:44:21;11.48;;;10.38;;
75506;SDS011;64086;43.220;27.878;2023-07-20T02:46:46;12.55;;;11.35;;
75506;SDS011;64086;43.220;27.878;2023-07-20T02:49:12;13.52;;;12.15;;
75506;SDS011;64086;43.220;27.878;2023-07-20T02:51:37;14.82;;;13.52;;
75506;SDS011;64086;43.220;27.878;2023-07-20T02:54:03;14.13;;;12.80;;
75506;SDS011;64086;43.220;27.878;2023-07-20T02:56:28;14.88;;;13.57;;
75506;SDS011;64086;43.220;27.878;2023-07-20T02:58:54;13.95;;;12.70;;
75506;SDS011;64086;43.220;27.878;2023-07-20T03:01:20;14.55;;;13.23;;
75506;SDS011;64086;43.220;27.878;2023-07-20T03:03:45;13.68;;;12.55;;
75506;SDS011;64086;43.220;27.878;2023-07-20T03:06:14;14.13;;;12.82;;
75506;SDS011;64086;43.220;27.878;2023-07-20T03:08:40;14.90;;;13.60;;
75506;SDS011;64086;43.220;27.878;2023-07-20T03:11:07;14.18;;;12.73;;
75506;SDS011;64086;43.220;27.878;2023-07-20T03:13:32;14.23;;;12.85;;
75506;SDS011;64086;43.220;27.878;2023-07-20T03:15:58;15.10;;;13.10;;
75506;SDS011;64086;43.220;27.878;2023-07-20T03:18:23;14.35;;;13.00;;
75506;SDS011;64086;43.220;27.878;2023-07-20T03:20:49;14.20;;;12.90;;
75506;SDS011;64086;43.220;27.878;2023-07-20T03:23:14;14.68;;;13.27;;
75506;SDS011;64086;43.220;27.878;2023-07-20T03:25:40;13.82;;;12.63;;
75506;SDS011;64086;43.220;27.878;2023-07-20T03:28:06;13.45;;;12.20;;
75506;SDS011;64086;43.220;27.878;2023-07-20T03:30:31;12.65;;;11.55;;
75506;SDS011;64086;43.220;27.878;2023-07-20T03:32:57;14.48;;;12.50;;
75506;SDS011;64086;43.220;27.878;2023-07-20T03:35:22;13.55;;;11.60;;
75506;SDS011;64086;43.220;27.878;2023-07-20T03:37:48;13.68;;;11.75;;
75506;SDS011;64086;43.220;27.878;2023-07-20T03:40:14;12.35;;;11.20;;
75506;SDS011;64086;43.220;27.878;2023-07-20T03:42:42;11.75;;;10.63;;
75506;SDS011;64086;43.220;27.878;2023-07-20T03:45:08;12.20;;;10.80;;
75506;SDS011;64086;43.220;27.878;2023-07-20T03:47:33;11.57;;;10.57;;
75506;SDS011;64086;43.220;27.878;2023-07-20T03:49:59;11.88;;;10.07;;
75506;SDS011;64086;43.220;27.878;2023-07-20T03:52:24;13.75;;;10.80;;
75506;SDS011;64086;43.220;27.878;2023-07-20T03:54:49;12.65;;;9.80;;
75506;SDS011;64086;43.220;27.878;2023-07-20T03:57:16;14.25;;;10.98;;
75506;SDS011;64086;43.220;27.878;2023-07-20T03:59:44;15.18;;;11.20;;
75506;SDS011;64086;43.220;27.878;2023-07-20T04:02:10;14.38;;;11.18;;
75506;SDS011;64086;43.220;27.878;2023-07-20T04:04:35;13.90;;;11.88;;
75506;SDS011;64086;43.220;27.878;2023-07-20T04:07:01;15.20;;;11.70;;
75506;SDS011;64086;43.220;27.878;2023-07-20T04:09:26;14.75;;;11.23;;
75506;SDS011;64086;43.220;27.878;2023-07-20T04:11:52;15.85;;;12.00;;
75506;SDS011;64086;43.220;27.878;2023-07-20T04:14:17;16.13;;;11.60;;
75506;SDS011;64086;43.220;27.878;2023-07-20T04:16:42;14.43;;;11.65;;
75506;SDS011;64086;43.220;27.878;2023-07-20T04:19:08;15.85;;;11.90;;
75506;SDS011;64086;43.220;27.878;2023-07-20T04:21:39;14.32;;;11.82;;
75506;SDS011;64086;43.220;27.878;2023-07-20T04:24:06;14.02;;;11.13;;
75506;SDS011;64086;43.220;27.878;2023-07-20T04:26:31;11.88;;;10.88;;
75506;SDS011;64086;43.220;27.878;2023-07-20T04:28:56;18.10;;;11.27;;
75506;SDS011;64086;43.220;27.878;2023-07-20T04:31:24;18.48;;;10.80;;
75506;SDS011;64086;43.220;27.878;2023-07-20T04:33:50;14.77;;;10.65;;
75506;SDS011;64086;43.220;27.878;2023-07-20T04:36:15;15.10;;;11.10;;
75506;SDS011;64086;43.220;27.878;2023-07-20T04:38:44;14.63;;;10.75;;
75506;SDS011;64086;43.220;27.878;2023-07-20T04:41:11;16.48;;;10.75;;
75506;SDS011;64086;43.220;27.878;2023-07-20T04:43:40;12.95;;;10.43;;
75506;SDS011;64086;43.220;27.878;2023-07-20T04:46:07;13.40;;;10.70;;
75506;SDS011;64086;43.220;27.878;2023-07-20T04:48:32;15.52;;;10.90;;
75506;SDS011;64086;43.220;27.878;2023-07-20T04:50:57;15.32;;;10.52;;
75506;SDS011;64086;43.220;27.878;2023-07-20T04:53:23;15.82;;;10.55;;
75506;SDS011;64086;43.220;27.878;2023-07-20T04:55:49;18.38;;;11.38;;
75506;SDS011;64086;43.220;27.878;2023-07-20T04:58:19;20.60;;;10.32;;
75506;SDS011;64086;43.220;27.878;2023-07-20T05:00:45;16.75;;;10.75;;
75506;SDS011;64086;43.220;27.878;2023-07-20T05:03:11;15.27;;;10.25;;
75506;SDS011;64086;43.220;27.878;2023-07-20T05:05:37;13.32;;;9.90;;
75506;SDS011;64086;43.220;27.878;2023-07-20T05:08:03;23.67;;;12.38;;
75506;SDS011;64086;43.220;27.878;2023-07-20T05:10:29;18.90;;;10.63;;
75506;SDS011;64086;43.220;27.878;2023-07-20T05:12:54;13.73;;;9.60;;
75506;SDS011;64086;43.220;27.878;2023-07-20T05:15:20;21.40;;;9.68;;
75506;SDS011;64086;43.220;27.878;2023-07-20T05:17:45;16.38;;;9.73;;
75506;SDS011;64086;43.220;27.878;2023-07-20T05:20:11;16.92;;;10.10;;
75506;SDS011;64086;43.220;27.878;2023-07-20T05:22:38;18.27;;;10.48;;
75506;SDS011;64086;43.220;27.878;2023-07-20T05:25:07;20.58;;;10.18;;
75506;SDS011;64086;43.220;27.878;2023-07-20T05:27:33;16.42;;;9.80;;
75506;SDS011;64086;43.220;27.878;2023-07-20T05:30:01;19.38;;;9.65;;
75506;SDS011;64086;43.220;27.878;2023-07-20T05:32:27;16.20;;;9.90;;
75506;SDS011;64086;43.220;27.878;2023-07-20T05:34:53;13.18;;;9.77;;
75506;SDS011;64086;43.220;27.878;2023-07-20T05:37:19;16.90;;;9.52;;
75506;SDS011;64086;43.220;27.878;2023-07-20T05:39:45;15.98;;;9.88;;
75506;SDS011;64086;43.220;27.878;2023-07-20T05:42:10;17.27;;;9.77;;
75506;SDS011;64086;43.220;27.878;2023-07-20T05:44:36;13.68;;;9.70;;
75506;SDS011;64086;43.220;27.878;2023-07-20T05:47:01;18.25;;;9.90;;
75506;SDS011;64086;43.220;27.878;2023-07-20T05:49:27;15.05;;;10.10;;
75506;SDS011;64086;43.220;27.878;2023-07-20T05:51:53;16.20;;;10.43;;
75506;SDS011;64086;43.220;27.878;2023-07-20T05:54:20;15.07;;;9.88;;
75506;SDS011;64086;43.220;27.878;2023-07-20T05:56:46;19.35;;;10.48;;
75506;SDS011;64086;43.220;27.878;2023-07-20T05:59:11;14.05;;;10.68;;
75506;SDS011;64086;43.220;27.878;2023-07-20T06:01:37;19.30;;;10.20;;
75506;SDS011;64086;43.220;27.878;2023-07-20T06:04:02;15.30;;;10.02;;
75506;SDS011;64086;43.220;27.878;2023-07-20T06:06:28;16.30;;;10.13;;
75506;SDS011;64086;43.220;27.878;2023-07-20T06:08:54;20.73;;;11.40;;
75506;SDS011;64086;43.220;27.878;2023-07-20T06:11:19;15.95;;;11.95;;
75506;SDS011;64086;43.220;27.878;2023-07-20T06:13:45;19.35;;;11.18;;
75506;SDS011;64086;43.220;27.878;2023-07-20T06:16:11;15.80;;;11.23;;
75506;SDS011;64086;43.220;27.878;2023-07-20T06:18:36;15.05;;;11.82;;
75506;SDS011;64086;43.220;27.878;2023-07-20T06:21:02;19.48;;;12.38;;
75506;SDS011;64086;43.220;27.878;2023-07-20T06:23:27;16.40;;;12.75;;
75506;SDS011;64086;43.220;27.878;2023-07-20T06:25:53;22.88;;;12.38;;
75506;SDS011;64086;43.220;27.878;2023-07-20T06:28:18;16.70;;;7.40;;
75506;SDS011;64086;43.220;27.878;2023-07-20T06:30:44;16.92;;;6.60;;
75506;SDS011;64086;43.220;27.878;2023-07-20T06:33:09;13.52;;;6.50;;
75506;SDS011;64086;43.220;27.878;2023-07-20T06:35:35;11.50;;;5.78;;
75506;SDS011;64086;43.220;27.878;2023-07-20T06:38:01;15.02;;;5.88;;
75506;SDS011;64086;43.220;27.878;2023-07-20T06:40:28;9.90;;;4.95;;
75506;SDS011;64086;43.220;27.878;2023-07-20T06:42:54;14.93;;;5.80;;
75506;SDS011;64086;43.220;27.878;2023-07-20T06:45:20;9.32;;;5.45;;
75506;SDS011;64086;43.220;27.878;2023-07-20T06:47:45;12.60;;;5.03;;
75506;SDS011;64086;43.220;27.878;2023-07-20T06:50:11;8.00;;;5.30;;
75506;SDS011;64086;43.220;27.878;2023-07-20T06:52:37;15.43;;;5.10;;
75506;SDS011;64086;43.220;27.878;2023-07-20T06:55:02;9.70;;;5.15;;
75506;SDS011;64086;43.220;27.878;2023-07-20T06:57:29;11.45;;;5.35;;
75506;SDS011;64086;43.220;27.878;2023-07-20T06:59:54;11.23;;;5.93;;
75506;SDS011;64086;43.220;27.878;2023-07-20T07:02:19;11.05;;;5.30;;
75506;SDS011;64086;43.220;27.878;2023-07-20T07:04:45;12.80;;;5.65;;
75506;SDS011;64086;43.220;27.878;2023-07-20T07:07:13;17.38;;;5.57;;
75506;SDS011;64086;43.220;27.878;2023-07-20T07:09:39;10.82;;;5.25;;
75506;SDS011;64086;43.220;27.878;2023-07-20T07:12:05;18.17;;;5.93;;
75506;SDS011;64086;43.220;27.878;2023-07-20T07:14:31;13.30;;;5.53;;
75506;SDS011;64086;43.220;27.878;2023-07-20T07:16:56;12.05;;;5.30;;
75506;SDS011;64086;43.220;27.878;2023-07-20T07:19:22;22.58;;;6.70;;
75506;SDS011;64086;43.220;27.878;2023-07-20T07:21:47;16.65;;;6.32;;
75506;SDS011;64086;43.220;27.878;2023-07-20T07:24:12;16.73;;;6.13;;
75506;SDS011;64086;43.220;27.878;2023-07-20T07:26:38;13.18;;;6.10;;
75506;SDS011;64086;43.220;27.878;2023-07-20T07:29:04;12.60;;;6.18;;
75506;SDS011;64086;43.220;27.878;2023-07-20T07:31:29;15.50;;;5.78;;
75506;SDS011;64086;43.220;27.878;2023-07-20T07:33:55;16.10;;;5.60;;
75506;SDS011;64086;43.220;27.878;2023-07-20T07:36:22;12.68;;;5.20;;
75506;SDS011;64086;43.220;27.878;2023-07-20T07:38:49;11.52;;;5.15;;
75506;SDS011;64086;43.220;27.878;2023-07-20T07:41:15;8.88;;;4.18;;
75506;SDS011;64086;43.220;27.878;2023-07-20T07:43:40;7.13;;;4.30;;
75506;SDS011;64086;43.220;27.878;2023-07-20T07:46:06;8.70;;;4.45;;
75506;SDS011;64086;43.220;27.878;2023-07-20T07:48:31;9.77;;;4.78;;
75506;SDS011;64086;43.220;27.878;2023-07-20T07:50:57;9.98;;;4.45;;
75506;SDS011;64086;43.220;27.878;2023-07-20T07:53:22;10.88;;;4.50;;
75506;SDS011;64086;43.220;27.878;2023-07-20T07:55:49;13.73;;;4.63;;
75506;SDS011;64086;43.220;27.878;2023-07-20T07:58:14;9.95;;;4.55;;
75506;SDS011;64086;43.220;27.878;2023-07-20T08:00:40;7.43;;;4.32;;
75506;SDS011;64086;43.220;27.878;2023-07-20T08:03:08;7.13;;;4.63;;
75506;SDS011;64086;43.220;27.878;2023-07-20T08:05:34;9.63;;;7.30;;
75506;SDS011;64086;43.220;27.878;2023-07-20T08:08:02;9.55;;;3.95;;
75506;SDS011;64086;43.220;27.878;2023-07-20T08:10:31;9.60;;;3.85;;
75506;SDS011;64086;43.220;27.878;2023-07-20T08:12:56;5.70;;;4.13;;
75506;SDS011;64086;43.220;27.878;2023-07-20T08:15:22;8.93;;;4.18;;
75506;SDS011;64086;43.220;27.878;2023-07-20T08:17:48;10.27;;;4.55;;
75506;SDS011;64086;43.220;27.878;2023-07-20T08:20:14;8.07;;;3.95;;
75506;SDS011;64086;43.220;27.878;2023-07-20T08:22:41;8.30;;;4.35;;
75506;SDS011;64086;43.220;27.878;2023-07-20T08:25:07;10.85;;;4.07;;
75506;SDS011;64086;43.220;27.878;2023-07-20T08:27:33;11.32;;;4.55;;
75506;SDS011;64086;43.220;27.878;2023-07-20T08:29:58;10.15;;;4.38;;
75506;SDS011;64086;43.220;27.878;2023-07-20T08:32:24;10.70;;;4.47;;
75506;SDS011;64086;43.220;27.878;2023-07-20T08:34:50;7.43;;;4.10;;
75506;SDS011;64086;43.220;27.878;2023-07-20T08:37:16;9.48;;;4.90;;
75506;SDS011;64086;43.220;27.878;2023-07-20T08:39:41;10.00;;;4.57;;
75506;SDS011;64086;43.220;27.878;2023-07-20T08:42:07;8.05;;;5.03;;
75506;SDS011;64086;43.220;27.878;2023-07-20T08:44:34;11.23;;;4.50;;
75506;SDS011;64086;43.220;27.878;2023-07-20T08:47:01;7.90;;;4.70;;
75506;SDS011;64086;43.220;27.878;2023-07-20T08:49:33;10.80;;;5.10;;
75506;SDS011;64086;43.220;27.878;2023-07-20T08:51:59;10.27;;;4.93;;
75506;SDS011;64086;43.220;27.878;2023-07-20T08:54:26;14.25;;;5.70;;
75506;SDS011;64086;43.220;27.878;2023-07-20T08:56:54;10.85;;;5.10;;
75506;SDS011;64086;43.220;27.878;2023-07-20T08:59:22;9.82;;;4.97;;
75506;SDS011;64086;43.220;27.878;2023-07-20T09:01:48;9.10;;;5.68;;
75506;SDS011;64086;43.220;27.878;2023-07-20T09:04:14;10.75;;;6.00;;
75506;SDS011;64086;43.220;27.878;2023-07-20T09:06:41;7.18;;;5.57;;
75506;SDS011;64086;43.220;27.878;2023-07-20T09:09:06;11.02;;;6.28;;
75506;SDS011;64086;43.220;27.878;2023-07-20T09:11:32;9.77;;;6.20;;
75506;SDS011;64086;43.220;27.878;2023-07-20T09:14:07;9.55;;;5.80;;
75506;SDS011;64086;43.220;27.878;2023-07-20T09:19:31;11.13;;;6.18;;
75506;SDS011;64086;43.220;27.878;2023-07-20T09:21:59;11.75;;;7.13;;
75506;SDS011;64086;43.220;27.878;2023-07-20T09:24:24;12.75;;;6.68;;
75506;SDS011;64086;43.220;27.878;2023-07-20T09:26:50;10.82;;;6.72;;
75506;SDS011;64086;43.220;27.878;2023-07-20T09:29:19;11.57;;;6.63;;
75506;SDS011;64086;43.220;27.878;2023-07-20T09:32:01;9.45;;;6.30;;
75506;SDS011;64086;43.220;27.878;2023-07-20T09:34:30;11.07;;;6.50;;
75506;SDS011;64086;43.220;27.878;2023-07-20T09:36:57;8.70;;;6.70;;
75506;SDS011;64086;43.220;27.878;2023-07-20T09:39:23;14.05;;;7.78;;
75506;SDS011;64086;43.220;27.878;2023-07-20T09:41:48;15.13;;;7.38;;
75506;SDS011;64086;43.220;27.878;2023-07-20T09:44:14;12.10;;;7.03;;
75506;SDS011;64086;43.220;27.878;2023-07-20T09:46:44;11.82;;;6.88;;
75506;SDS011;64086;43.220;27.878;2023-07-20T09:49:11;11.52;;;6.22;;
75506;SDS011;64086;43.220;27.878;2023-07-20T09:51:37;10.85;;;6.40;;
75506;SDS011;64086;43.220;27.878;2023-07-20T09:54:03;13.00;;;6.45;;
75506;SDS011;64086;43.220;27.878;2023-07-20T09:56:29;12.57;;;6.13;;
75506;SDS011;64086;43.220;27.878;2023-07-20T09:58:56;8.88;;;6.30;;
75506;SDS011;64086;43.220;27.878;2023-07-20T10:01:23;10.07;;;6.70;;
75506;SDS011;64086;43.220;27.878;2023-07-20T10:03:50;12.43;;;6.63;;
75506;SDS011;64086;43.220;27.878;2023-07-20T10:06:20;10.38;;;6.28;;
75506;SDS011;64086;43.220;27.878;2023-07-20T10:08:49;24.63;;;6.60;;
75506;SDS011;64086;43.220;27.878;2023-07-20T10:11:18;8.63;;;5.97;;
75506;SDS011;64086;43.220;27.878;2023-07-20T10:13:44;11.90;;;6.43;;
75506;SDS011;64086;43.220;27.878;2023-07-20T10:16:10;9.15;;;6.03;;
75506;SDS011;64086;43.220;27.878;2023-07-20T10:21:14;11.70;;;6.05;;
75506;SDS011;64086;43.220;27.878;2023-07-20T10:23:42;9.77;;;6.10;;
75506;SDS011;64086;43.220;27.878;2023-07-20T10:26:08;14.77;;;6.80;;
75506;SDS011;64086;43.220;27.878;2023-07-20T10:28:34;9.75;;;6.40;;
75506;SDS011;64086;43.220;27.878;2023-07-20T10:31:01;12.48;;;6.30;;
75506;SDS011;64086;43.220;27.878;2023-07-20T10:33:27;18.02;;;6.50;;
75506;SDS011;64086;43.220;27.878;2023-07-20T10:35:54;12.27;;;6.10;;
75506;SDS011;64086;43.220;27.878;2023-07-20T10:38:37;8.65;;;6.35;;
75506;SDS011;64086;43.220;27.878;2023-07-20T10:41:04;14.23;;;5.97;;
75506;SDS011;64086;43.220;27.878;2023-07-20T10:43:44;10.25;;;6.57;;
75506;SDS011;64086;43.220;27.878;2023-07-20T10:46:10;9.40;;;6.43;;
75506;SDS011;64086;43.220;27.878;2023-07-20T10:48:39;14.80;;;6.93;;
75506;SDS011;64086;43.220;27.878;2023-07-20T10:51:27;10.95;;;6.53;;
75506;SDS011;64086;43.220;27.878;2023-07-20T10:53:54;15.13;;;6.60;;
75506;SDS011;64086;43.220;27.878;2023-07-20T10:56:22;10.60;;;5.82;;
75506;SDS011;64086;43.220;27.878;2023-07-20T10:58:48;13.68;;;6.25;;
75506;SDS011;64086;43.220;27.878;2023-07-20T11:01:15;12.77;;;5.70;;
75506;SDS011;64086;43.220;27.878;2023-07-20T11:03:42;11.80;;;6.43;;
75506;SDS011;64086;43.220;27.878;2023-07-20T11:08:48;9.55;;;6.30;;
75506;SDS011;64086;43.220;27.878;2023-07-20T11:11:20;8.23;;;5.40;;
75506;SDS011;64086;43.220;27.878;2023-07-20T11:14:21;8.30;;;5.78;;
75506;SDS011;64086;43.220;27.878;2023-07-20T11:16:51;7.65;;;4.95;;
75506;SDS011;64086;43.220;27.878;2023-07-20T11:19:18;10.57;;;5.20;;
75506;SDS011;64086;43.220;27.878;2023-07-20T11:21:49;10.43;;;4.68;;
75506;SDS011;64086;43.220;27.878;2023-07-20T11:24:16;11.02;;;4.70;;
75506;SDS011;64086;43.220;27.878;2023-07-20T11:29:15;10.18;;;4.78;;
75506;SDS011;64086;43.220;27.878;2023-07-20T11:31:42;8.07;;;4.65;;
75506;SDS011;64086;43.220;27.878;2023-07-20T11:34:12;6.85;;;4.70;;
75506;SDS011;64086;43.220;27.878;2023-07-20T11:36:45;6.68;;;5.40;;
75506;SDS011;64086;43.220;27.878;2023-07-20T11:39:13;6.95;;;4.35;;
75506;SDS011;64086;43.220;27.878;2023-07-20T11:41:41;7.32;;;6.05;;
75506;SDS011;64086;43.220;27.878;2023-07-20T11:44:09;11.02;;;6.70;;
75506;SDS011;64086;43.220;27.878;2023-07-20T11:46:38;7.32;;;5.88;;
75506;SDS011;64086;43.220;27.878;2023-07-20T11:49:04;7.80;;;6.35;;
75506;SDS011;64086;43.220;27.878;2023-07-20T11:51:30;10.77;;;6.22;;
75506;SDS011;64086;43.220;27.878;2023-07-20T11:53:56;9.40;;;6.00;;
75506;SDS011;64086;43.220;27.878;2023-07-20T11:56:25;7.93;;;6.28;;
75506;SDS011;64086;43.220;27.878;2023-07-20T11:58:54;12.55;;;6.60;;
75506;SDS011;64086;43.220;27.878;2023-07-20T12:01:21;9.77;;;6.10;;
75506;SDS011;64086;43.220;27.878;2023-07-20T12:03:47;11.23;;;6.18;;
75506;SDS011;64086;43.220;27.878;2023-07-20T12:06:13;10.35;;;6.20;;
75506;SDS011;64086;43.220;27.878;2023-07-20T12:08:39;11.82;;;6.28;;
75506;SDS011;64086;43.220;27.878;2023-07-20T12:11:06;8.85;;;6.43;;
75506;SDS011;64086;43.220;27.878;2023-07-20T12:14:06;8.00;;;6.38;;
75506;SDS011;64086;43.220;27.878;2023-07-20T12:16:26;10.32;;;6.18;;
75506;SDS011;64086;43.220;27.878;2023-07-20T12:18:59;9.13;;;6.35;;
75506;SDS011;64086;43.220;27.878;2023-07-20T12:21:35;9.57;;;6.80;;
75506;SDS011;64086;43.220;27.878;2023-07-20T12:24:05;14.63;;;6.90;;
75506;SDS011;64086;43.220;27.878;2023-07-20T12:26:31;8.77;;;6.47;;
75506;SDS011;64086;43.220;27.878;2023-07-20T12:28:57;13.10;;;7.47;;
75506;SDS011;64086;43.220;27.878;2023-07-20T12:31:23;7.85;;;7.07;;
75506;SDS011;64086;43.220;27.878;2023-07-20T12:33:50;7.85;;;7.05;;
75506;SDS011;64086;43.220;27.878;2023-07-20T12:36:17;7.65;;;6.85;;
75506;SDS011;64086;43.220;27.878;2023-07-20T12:38:43;10.25;;;6.82;;
75506;SDS011;64086;43.220;27.878;2023-07-20T12:41:09;12.27;;;6.70;;
75506;SDS011;64086;43.220;27.878;2023-07-20T12:43:37;12.18;;;6.90;;
75506;SDS011;64086;43.220;27.878;2023-07-20T12:46:03;9.40;;;6.57;;
75506;SDS011;64086;43.220;27.878;2023-07-20T12:48:29;10.63;;;6.75;;
75506;SDS011;64086;43.220;27.878;2023-07-20T12:50:54;9.30;;;6.55;;
75506;SDS011;64086;43.220;27.878;2023-07-20T12:53:20;9.02;;;6.55;;
75506;SDS011;64086;43.220;27.878;2023-07-20T12:55:45;10.52;;;6.80;;
75506;SDS011;64086;43.220;27.878;2023-07-20T12:58:11;9.25;;;6.43;;
75506;SDS011;64086;43.220;27.878;2023-07-20T13:00:37;10.35;;;6.25;;
75506;SDS011;64086;43.220;27.878;2023-07-20T13:03:02;11.30;;;6.20;;
75506;SDS011;64086;43.220;27.878;2023-07-20T13:05:32;8.27;;;5.70;;
75506;SDS011;64086;43.220;27.878;2023-07-20T13:07:58;11.07;;;6.38;;
75506;SDS011;64086;43.220;27.878;2023-07-20T13:10:23;9.90;;;6.43;;
75506;SDS011;64086;43.220;27.878;2023-07-20T13:12:49;11.98;;;6.40;;
75506;SDS011;64086;43.220;27.878;2023-07-20T13:15:14;9.30;;;6.00;;
75506;SDS011;64086;43.220;27.878;2023-07-20T13:17:40;11.43;;;6.57;;
75506;SDS011;64086;43.220;27.878;2023-07-20T13:20:06;8.50;;;6.70;;
75506;SDS011;64086;43.220;27.878;2023-07-20T13:22:34;10.18;;;6.22;;
75506;SDS011;64086;43.220;27.878;2023-07-20T13:25:00;9.88;;;7.10;;
75506;SDS011;64086;43.220;27.878;2023-07-20T13:27:26;9.45;;;7.13;;
75506;SDS011;64086;43.220;27.878;2023-07-20T13:29:52;10.82;;;7.05;;
75506;SDS011;64086;43.220;27.878;2023-07-20T13:32:17;10.00;;;7.10;;
75506;SDS011;64086;43.220;27.878;2023-07-20T13:34:43;9.30;;;6.93;;
75506;SDS011;64086;43.220;27.878;2023-07-20T13:37:10;10.07;;;6.70;;
75506;SDS011;64086;43.220;27.878;2023-07-20T13:39:36;12.40;;;7.20;;
75506;SDS011;64086;43.220;27.878;2023-07-20T13:42:02;9.77;;;6.85;;
75506;SDS011;64086;43.220;27.878;2023-07-20T13:44:30;10.57;;;6.93;;
75506;SDS011;64086;43.220;27.878;2023-07-20T13:46:56;11.40;;;6.70;;
75506;SDS011;64086;43.220;27.878;2023-07-20T13:49:21;10.43;;;7.47;;
75506;SDS011;64086;43.220;27.878;2023-07-20T13:51:46;8.88;;;7.50;;
75506;SDS011;64086;43.220;27.878;2023-07-20T13:54:12;8.93;;;7.53;;
75506;SDS011;64086;43.220;27.878;2023-07-20T13:56:37;10.40;;;7.72;;
75506;SDS011;64086;43.220;27.878;2023-07-20T13:59:03;8.63;;;7.57;;
75506;SDS011;64086;43.220;27.878;2023-07-20T14:01:28;12.15;;;7.82;;
75506;SDS011;64086;43.220;27.878;2023-07-20T14:03:55;9.55;;;7.40;;
75506;SDS011;64086;43.220;27.878;2023-07-20T14:06:21;9.77;;;7.90;;
75506;SDS011;64086;43.220;27.878;2023-07-20T14:08:47;8.60;;;7.47;;
75506;SDS011;64086;43.220;27.878;2023-07-20T14:11:13;8.25;;;7.55;;
75506;SDS011;64086;43.220;27.878;2023-07-20T14:13:39;10.30;;;8.10;;
75506;SDS011;64086;43.220;27.878;2023-07-20T14:16:05;8.57;;;7.38;;
75506;SDS011;64086;43.220;27.878;2023-07-20T14:18:31;9.95;;;7.97;;
75506;SDS011;64086;43.220;27.878;2023-07-20T14:20:56;11.10;;;8.05;;
75506;SDS011;64086;43.220;27.878;2023-07-20T14:23:22;8.68;;;7.85;;
75506;SDS011;64086;43.220;27.878;2023-07-20T14:25:47;8.70;;;7.68;;
75506;SDS011;64086;43.220;27.878;2023-07-20T14:28:13;9.57;;;7.63;;
75506;SDS011;64086;43.220;27.878;2023-07-20T14:30:39;9.52;;;8.18;;
75506;SDS011;64086;43.220;27.878;2023-07-20T14:33:05;10.80;;;7.80;;
75506;SDS011;64086;43.220;27.878;2023-07-20T14:35:30;11.38;;;7.80;;
75506;SDS011;64086;43.220;27.878;2023-07-20T14:37:56;8.85;;;8.10;;
75506;SDS011;64086;43.220;27.878;2023-07-20T14:40:21;9.05;;;8.15;;